createdAt,value
2023-03-11T00:00:58.318Z,1.73
2023-03-11T00:03:27.877Z,1.71
2023-03-11T00:05:58.747Z,1.65
2023-03-11T00:08:28.421Z,1.65
2023-03-11T00:10:58.965Z,1.63
2023-03-11T00:13:30.225Z,1.62
2023-03-11T00:16:00.289Z,1.50
2023-03-11T00:18:31.898Z,1.54
2023-03-11T00:21:03.292Z,1.50
2023-03-11T00:23:32.333Z,1.52
2023-03-11T00:26:03.331Z,1.45
2023-03-11T00:28:34.441Z,1.48
2023-03-11T00:31:03.568Z,1.46
2023-03-11T00:33:32.622Z,1.48
2023-03-11T00:36:00.807Z,1.46
2023-03-11T00:38:29.484Z,1.28
2023-03-11T00:41:01.920Z,1.40
2023-03-11T00:43:31.334Z,1.45
2023-03-11T00:46:01.264Z,1.46
2023-03-11T00:48:29.883Z,1.39
2023-03-11T00:50:58.390Z,1.39
2023-03-11T00:53:27.099Z,1.37
2023-03-11T00:55:55.614Z,1.37
2023-03-11T00:58:27.783Z,1.32
2023-03-11T01:00:57.603Z,1.27
2023-03-11T01:03:27.872Z,1.24
2023-03-11T01:05:57.847Z,1.24
2023-03-11T01:08:27.288Z,1.23
2023-03-11T01:10:55.873Z,1.25
2023-03-11T01:13:24.400Z,1.21
2023-03-11T01:15:53.755Z,1.04
2023-03-11T01:18:22.323Z,1.09
2023-03-11T01:20:52.657Z,1.02
2023-03-11T01:23:21.845Z,0.98
2023-03-11T01:25:51.186Z,0.94
2023-03-11T01:28:19.779Z,0.82
2023-03-11T01:30:48.229Z,0.90
2023-03-11T01:33:18.973Z,0.74
2023-03-11T01:35:49.635Z,0.88
2023-03-11T01:38:19.979Z,0.86
2023-03-11T01:40:49.994Z,0.81
2023-03-11T01:43:57.705Z,0.80
2023-03-11T01:46:29.333Z,0.75
2023-03-11T01:48:59.123Z,0.73
2023-03-11T01:51:31.852Z,0.73
2023-03-11T01:54:05.898Z,0.70
2023-03-11T01:56:35.357Z,0.68
2023-03-11T01:59:04.361Z,0.68
2023-03-11T02:01:32.919Z,0.66
2023-03-11T02:04:04.120Z,0.67
2023-03-11T02:06:36.009Z,0.65
2023-03-11T02:09:07.386Z,0.64
2023-03-11T02:11:36.256Z,0.64
2023-03-11T02:14:08.300Z,0.58
2023-03-11T02:16:37.918Z,0.60
2023-03-11T02:19:18.592Z,0.60
2023-03-11T02:21:47.196Z,0.56
2023-03-11T02:24:23.750Z,0.55
2023-03-11T02:26:56.824Z,0.52
2023-03-11T02:29:27.985Z,0.51
2023-03-11T02:31:58.445Z,0.49
2023-03-11T02:34:29.579Z,0.41
2023-03-11T02:36:59.373Z,0.42
2023-03-11T02:39:35.324Z,0.27
2023-03-11T02:42:08.610Z,0.32
2023-03-11T02:44:37.214Z,0.29
2023-03-11T02:47:06.315Z,0.35
2023-03-11T02:49:34.851Z,0.34
2023-03-11T02:52:03.383Z,0.32
2023-03-11T02:54:31.860Z,0.26
2023-03-11T02:57:00.347Z,0.26
2023-03-11T02:59:30.570Z,0.17
2023-03-11T03:01:59.372Z,0.27
2023-03-11T03:04:27.874Z,0.20
2023-03-11T03:06:56.138Z,0.26
2023-03-11T03:09:24.777Z,0.25
2023-03-11T03:11:53.249Z,0.23
2023-03-11T03:14:22.032Z,0.19
2023-03-11T03:16:51.977Z,0.22
2023-03-11T03:19:21.339Z,0.23
2023-03-11T03:21:50.215Z,0.23
2023-03-11T03:24:18.844Z,0.22
2023-03-11T03:26:49.074Z,0.25
2023-03-11T03:29:19.211Z,0.20
2023-03-11T03:31:49.176Z,0.14
2023-03-11T03:34:18.991Z,0.14
2023-03-11T03:36:47.420Z,0.13
2023-03-11T03:39:16.319Z,0.18
2023-03-11T03:41:44.461Z,0.14
2023-03-11T03:44:12.894Z,0.00
2023-03-11T03:46:41.838Z,0.15
2023-03-11T03:49:10.429Z,0.10
2023-03-11T03:51:40.760Z,0.07
2023-03-11T03:54:09.327Z,-0.06
2023-03-11T03:56:37.795Z,0.04
2023-03-11T03:59:06.127Z,0.06
2023-03-11T04:01:34.750Z,-0.03
2023-03-11T04:04:03.082Z,0.08
2023-03-11T04:06:31.408Z,0.02
2023-03-11T04:09:01.684Z,0.04
2023-03-11T04:11:30.085Z,0.00
2023-03-11T04:13:59.645Z,0.05
2023-03-11T04:16:28.079Z,0.02
2023-03-11T04:18:56.679Z,0.00
2023-03-11T04:21:25.047Z,0.05
2023-03-11T04:23:53.273Z,0.07
2023-03-11T04:26:23.147Z,0.08
2023-03-11T04:28:52.142Z,0.01
2023-03-11T04:31:21.018Z,-0.04
2023-03-11T04:33:49.351Z,-0.05
2023-03-11T04:36:18.012Z,-0.10
2023-03-11T04:38:47.226Z,-0.07
2023-03-11T04:41:15.646Z,-0.13
2023-03-11T04:43:45.657Z,-0.08
2023-03-11T04:46:13.910Z,-0.19
2023-03-11T04:48:42.588Z,-0.16
2023-03-11T04:51:11.172Z,-0.28
2023-03-11T04:53:39.546Z,-0.26
2023-03-11T04:56:08.242Z,-0.26
2023-03-11T04:58:36.667Z,-0.23
2023-03-11T05:01:06.773Z,-0.23
2023-03-11T05:03:35.369Z,-0.21
2023-03-11T05:06:04.208Z,-0.22
2023-03-11T05:08:35.922Z,-0.31
2023-03-11T05:11:04.690Z,-0.27
2023-03-11T05:13:33.009Z,-0.19
2023-03-11T05:16:01.460Z,-0.14
2023-03-11T05:18:32.709Z,-0.15
2023-03-11T05:21:01.010Z,-0.10
2023-03-11T05:23:29.350Z,-0.12
2023-03-11T05:25:57.865Z,-0.12
2023-03-11T05:28:26.346Z,-0.17
2023-03-11T05:30:54.881Z,-0.17
2023-03-11T05:33:23.452Z,-0.19
2023-03-11T05:35:53.493Z,-0.17
2023-03-11T05:38:22.044Z,-0.16
2023-03-11T05:40:50.360Z,-0.05
2023-03-11T05:43:18.724Z,-0.08
2023-03-11T05:45:47.063Z,-0.19
2023-03-11T05:48:15.276Z,-0.20
2023-03-11T05:50:45.089Z,-0.16
2023-03-11T05:53:14.872Z,-0.05
2023-03-11T05:55:43.377Z,-0.09
2023-03-11T05:58:11.806Z,-0.17
2023-03-11T06:00:40.042Z,-0.08
2023-03-11T06:03:09.388Z,-0.07
2023-03-11T06:05:38.009Z,0.01
2023-03-11T06:08:06.597Z,-0.02
2023-03-11T06:10:36.311Z,-0.01
2023-03-11T06:13:04.761Z,0.06
2023-03-11T06:15:34.376Z,0.12
2023-03-11T06:18:02.784Z,0.09
2023-03-11T06:20:31.160Z,0.14
2023-03-11T06:22:59.540Z,0.02
2023-03-11T06:25:27.990Z,0.04
2023-03-11T06:27:57.690Z,0.03
2023-03-11T06:30:26.707Z,0.05
2023-03-11T06:32:55.416Z,0.14
2023-03-11T06:35:23.627Z,0.01
2023-03-11T06:37:51.885Z,0.03
2023-03-11T06:40:20.444Z,0.05
2023-03-11T06:42:48.879Z,-0.05
2023-03-11T06:45:20.603Z,0.04
2023-03-11T06:47:49.279Z,0.08
2023-03-11T06:50:18.437Z,0.07
2023-03-11T06:52:46.749Z,0.10
2023-03-11T06:55:15.111Z,0.12
2023-03-11T06:57:44.906Z,0.13
2023-03-11T07:00:14.474Z,0.01
2023-03-11T07:02:44.325Z,0.13
2023-03-11T07:05:13.647Z,0.03
2023-03-11T07:07:42.454Z,0.07
2023-03-11T07:10:12.046Z,0.12
2023-03-11T07:12:41.074Z,0.27
2023-03-11T07:15:11.630Z,0.31
2023-03-11T07:17:40.492Z,0.32
2023-03-11T07:20:13.347Z,0.32
2023-03-11T07:22:42.365Z,0.38
2023-03-11T07:25:11.346Z,0.19
2023-03-11T07:27:39.594Z,0.26
2023-03-11T07:30:08.983Z,0.14
2023-03-11T07:32:37.770Z,0.10
2023-03-11T07:35:06.686Z,0.22
2023-03-11T07:37:36.495Z,0.47
2023-03-11T07:40:05.404Z,0.45
2023-03-11T07:42:34.921Z,0.39
2023-03-11T07:45:03.481Z,0.55
2023-03-11T07:47:31.876Z,0.49
2023-03-11T07:50:01.128Z,0.62
2023-03-11T07:52:32.262Z,0.51
2023-03-11T07:55:02.277Z,0.61
2023-03-11T07:57:30.627Z,0.43
2023-03-11T07:59:59.060Z,0.52
2023-03-11T08:02:28.107Z,0.58
2023-03-11T08:04:58.200Z,0.48
2023-03-11T08:07:26.598Z,0.58
2023-03-11T08:09:56.255Z,0.63
2023-03-11T08:12:27.035Z,0.70
2023-03-11T08:14:56.333Z,0.62
2023-03-11T08:17:24.827Z,0.72
2023-03-11T08:19:53.216Z,0.76
2023-03-11T08:22:21.575Z,0.74
2023-03-11T08:24:53.149Z,0.83
2023-03-11T08:27:21.561Z,1.01
2023-03-11T08:29:51.483Z,1.10
2023-03-11T08:32:21.980Z,1.20
2023-03-11T08:34:50.677Z,1.07
2023-03-11T08:37:19.477Z,1.12
2023-03-11T08:39:47.652Z,1.13
2023-03-11T08:42:16.134Z,1.09
2023-03-11T08:44:44.401Z,1.06
2023-03-11T08:47:15.082Z,1.28
2023-03-11T08:49:43.912Z,1.23
2023-03-11T08:52:12.319Z,1.04
2023-03-11T08:54:41.623Z,0.95
2023-03-11T08:57:10.047Z,0.93
2023-03-11T08:59:38.482Z,0.98
2023-03-11T09:02:07.390Z,1.20
2023-03-11T09:04:37.658Z,1.42
2023-03-11T09:07:06.211Z,1.31
2023-03-11T09:09:34.460Z,1.48
2023-03-11T09:12:02.770Z,1.79
2023-03-11T09:14:31.076Z,2.20
2023-03-11T09:16:59.843Z,2.39
2023-03-11T09:19:28.297Z,2.45
2023-03-11T09:21:58.214Z,2.35
2023-03-11T09:24:26.906Z,2.16
2023-03-11T09:26:55.438Z,1.71
2023-03-11T09:29:24.024Z,1.63
2023-03-11T09:31:52.444Z,1.81
2023-03-11T09:34:21.193Z,1.54
2023-03-11T09:36:50.388Z,1.81
2023-03-11T09:39:20.520Z,1.83
2023-03-11T09:41:58.500Z,1.83
2023-03-11T09:44:35.520Z,1.77
2023-03-11T09:47:30.189Z,1.45
2023-03-11T09:50:15.580Z,1.44
2023-03-11T09:52:50.910Z,1.53
2023-03-11T09:55:37.939Z,1.46
2023-03-11T09:58:14.338Z,1.79
2023-03-11T10:00:43.084Z,1.61
2023-03-11T10:03:23.040Z,1.83
2023-03-11T10:05:53.636Z,1.70
2023-03-11T10:08:29.761Z,1.55
2023-03-11T10:11:09.147Z,1.20
2023-03-11T10:13:45.217Z,0.25
2023-03-11T10:16:21.322Z,-0.33
2023-03-11T10:18:56.906Z,-0.40
2023-03-11T10:21:39.416Z,-0.29
2023-03-11T10:24:28.663Z,-0.26
2023-03-11T10:27:03.071Z,-0.42
2023-03-11T10:29:35.363Z,0.01
2023-03-11T10:32:14.935Z,0.53
2023-03-11T10:34:49.524Z,0.75
2023-03-11T10:37:21.155Z,1.22
2023-03-11T10:39:49.772Z,1.32
2023-03-11T10:42:24.610Z,1.53
2023-03-11T10:44:53.634Z,1.74
2023-03-11T10:47:24.867Z,1.96
2023-03-11T10:49:54.154Z,2.09
2023-03-11T10:52:22.697Z,1.95
2023-03-11T10:55:03.008Z,1.98
2023-03-11T10:57:36.703Z,1.95
2023-03-11T11:00:12.689Z,2.02
2023-03-11T11:02:43.804Z,1.98
2023-03-11T11:05:29.439Z,2.11
2023-03-11T11:08:06.848Z,1.98
2023-03-11T11:10:37.271Z,1.73
2023-03-11T11:13:21.709Z,1.61
2023-03-11T11:15:56.011Z,1.76
2023-03-11T11:18:27.857Z,1.99
2023-03-11T11:21:01.314Z,2.02
2023-03-11T11:23:34.496Z,2.46
2023-03-11T11:26:05.892Z,2.57
2023-03-11T11:28:37.851Z,2.99
2023-03-11T11:31:08.485Z,2.74
2023-03-11T11:33:50.097Z,2.43
2023-03-11T11:36:20.198Z,2.23
2023-03-11T11:38:48.529Z,2.40
2023-03-11T11:41:19.988Z,2.22
2023-03-11T11:43:53.489Z,2.00
2023-03-11T11:46:31.631Z,1.91
2023-03-11T11:49:13.037Z,1.98
2023-03-11T11:51:45.547Z,2.32
2023-03-11T11:54:20.017Z,2.58
2023-03-11T11:56:48.973Z,2.67
2023-03-11T11:59:21.937Z,2.70
2023-03-11T12:02:01.370Z,2.94
2023-03-11T12:04:46.252Z,2.96
2023-03-11T12:07:52.457Z,2.61
2023-03-11T12:10:26.546Z,2.68
2023-03-11T12:13:19.294Z,2.90
2023-03-11T12:15:55.105Z,2.95
2023-03-11T12:18:28.639Z,2.71
2023-03-11T12:20:58.974Z,2.67
2023-03-11T12:23:44.036Z,2.65
2023-03-11T12:26:18.345Z,2.53
2023-03-11T12:28:52.205Z,2.58
2023-03-11T12:31:24.973Z,1.95
2023-03-11T12:34:03.856Z,2.14
2023-03-11T12:36:34.614Z,2.01
2023-03-11T12:39:06.237Z,2.12
2023-03-11T12:41:40.529Z,1.98
2023-03-11T12:44:30.456Z,2.03
2023-03-11T12:47:21.407Z,1.81
2023-03-11T12:49:51.958Z,1.71
2023-03-11T12:52:30.670Z,1.95
2023-03-11T12:55:38.928Z,1.84
2023-03-11T12:58:29.856Z,1.84
2023-03-11T13:01:39.089Z,2.02
2023-03-11T13:04:26.674Z,1.95
2023-03-11T13:07:30.241Z,2.34
2023-03-11T13:10:07.104Z,2.31
2023-03-11T13:12:44.980Z,2.33
2023-03-11T13:15:43.387Z,2.36
2023-03-11T13:18:23.910Z,1.74
2023-03-11T13:20:59.470Z,1.95
2023-03-11T13:23:31.419Z,1.88
2023-03-11T13:26:17.094Z,1.96
2023-03-11T13:29:06.309Z,1.85
2023-03-11T13:31:43.835Z,1.67
2023-03-11T13:34:17.977Z,1.68
2023-03-11T13:37:11.608Z,1.66
2023-03-11T13:40:02.081Z,1.69
2023-03-11T13:42:36.168Z,1.84
2023-03-11T13:45:06.636Z,1.65
2023-03-11T13:47:37.312Z,1.71
2023-03-11T13:50:08.979Z,1.74
2023-03-11T13:52:46.049Z,1.79
2023-03-11T13:55:20.752Z,1.85
2023-03-11T13:57:54.776Z,1.80
2023-03-11T14:00:25.168Z,1.80
2023-03-11T14:02:56.569Z,1.71
2023-03-11T14:05:27.602Z,1.91
2023-03-11T14:08:12.571Z,1.96
2023-03-11T14:10:41.899Z,2.04
2023-03-11T14:13:19.848Z,1.96
2023-03-11T14:15:56.142Z,1.99
2023-03-11T14:18:35.113Z,2.22
2023-03-11T14:21:05.555Z,2.00
2023-03-11T14:23:41.665Z,2.18
2023-03-11T14:26:13.617Z,2.16
2023-03-11T14:28:46.062Z,2.19
2023-03-11T14:31:26.716Z,2.36
2023-03-11T14:34:04.329Z,2.30
2023-03-11T14:36:41.855Z,2.41
2023-03-11T14:39:26.910Z,2.70
2023-03-11T14:41:58.498Z,2.60
2023-03-11T14:44:29.210Z,2.67
2023-03-11T14:47:07.443Z,2.75
2023-03-11T14:49:36.476Z,2.57
2023-03-11T14:52:09.706Z,2.80
2023-03-11T14:54:40.197Z,2.83
2023-03-11T14:57:17.392Z,2.35
2023-03-11T14:59:50.466Z,2.32
2023-03-11T15:02:44.963Z,2.40
2023-03-11T15:05:19.663Z,2.22
2023-03-11T15:07:50.509Z,2.36
2023-03-11T15:10:20.381Z,2.26
2023-03-11T15:12:49.973Z,2.25
2023-03-11T15:15:27.427Z,1.88
2023-03-11T15:17:57.116Z,1.82
2023-03-11T15:20:28.137Z,1.85
2023-03-11T15:23:02.054Z,2.04
2023-03-11T15:25:33.476Z,2.04
2023-03-11T15:28:15.359Z,1.99
2023-03-11T15:30:44.091Z,1.85
2023-03-11T15:33:23.096Z,1.81
2023-03-11T15:35:52.136Z,1.67
2023-03-11T15:38:25.901Z,1.83
2023-03-11T15:41:01.221Z,1.73
2023-03-11T15:43:32.406Z,1.61
2023-03-11T15:46:04.218Z,1.58
2023-03-11T15:48:33.565Z,1.46
2023-03-11T15:51:02.337Z,1.52
2023-03-11T15:53:32.066Z,1.59
2023-03-11T15:56:11.884Z,1.54
2023-03-11T15:58:41.071Z,1.57
2023-03-11T16:01:10.832Z,1.53
2023-03-11T16:03:39.513Z,1.68
2023-03-11T16:06:08.107Z,1.71
2023-03-11T16:08:36.688Z,1.59
2023-03-11T16:11:07.424Z,1.38
2023-03-11T16:13:36.408Z,1.39
2023-03-11T16:16:05.360Z,1.47
2023-03-11T16:18:33.971Z,1.44
2023-03-11T16:21:08.768Z,1.42
2023-03-11T16:23:50.527Z,1.40
2023-03-11T16:26:24.251Z,1.47
2023-03-11T16:28:52.611Z,1.54
2023-03-11T16:31:20.882Z,1.50
2023-03-11T16:33:49.452Z,1.52
2023-03-11T16:36:18.392Z,1.55
2023-03-11T16:38:50.136Z,1.38
2023-03-11T16:41:21.298Z,1.40
2023-03-11T16:43:50.176Z,1.42
2023-03-11T16:46:18.601Z,1.39
2023-03-11T16:48:47.555Z,1.25
2023-03-11T16:51:17.761Z,1.37
2023-03-11T16:53:45.898Z,1.35
2023-03-11T16:56:15.366Z,1.29
2023-03-11T16:58:47.410Z,1.27
2023-03-11T17:01:16.326Z,1.30
2023-03-11T17:03:48.077Z,1.34
2023-03-11T17:06:17.689Z,1.28
2023-03-11T17:08:49.587Z,1.29
2023-03-11T17:11:20.843Z,1.24
2023-03-11T17:13:54.225Z,1.26
2023-03-11T17:16:25.372Z,1.22
2023-03-11T17:18:53.920Z,1.23
2023-03-11T17:21:23.078Z,1.25
2023-03-11T17:23:54.896Z,1.26
2023-03-11T17:26:24.000Z,1.22
2023-03-11T17:28:54.155Z,1.29
2023-03-11T17:31:22.500Z,1.29
2023-03-11T17:33:51.036Z,1.30
2023-03-11T17:36:20.289Z,1.28
2023-03-11T17:38:49.907Z,1.35
2023-03-11T17:41:20.169Z,1.27
2023-03-11T17:43:51.631Z,1.21
2023-03-11T17:46:23.397Z,1.22
2023-03-11T17:48:53.050Z,1.13
2023-03-11T17:51:23.575Z,1.13
2023-03-11T17:53:52.177Z,1.16
2023-03-11T17:56:21.699Z,1.12
2023-03-11T17:58:51.696Z,1.16
2023-03-11T18:01:24.842Z,1.15
2023-03-11T18:03:53.807Z,1.15
2023-03-11T18:06:23.104Z,1.17
2023-03-11T18:08:53.216Z,1.14
2023-03-11T18:11:24.163Z,1.19
2023-03-11T18:13:53.690Z,1.22
2023-03-11T18:16:26.157Z,1.23
2023-03-11T18:18:56.473Z,1.29
2023-03-11T18:21:26.703Z,1.27
2023-03-11T18:23:56.356Z,1.30
2023-03-11T18:26:26.957Z,1.30
2023-03-11T18:28:55.470Z,1.26
2023-03-11T18:31:27.746Z,1.13
2023-03-11T18:33:58.899Z,1.08
2023-03-11T18:36:29.601Z,1.10
2023-03-11T18:39:00.645Z,1.10
2023-03-11T18:41:35.215Z,1.03
2023-03-11T18:44:04.382Z,1.02
2023-03-11T18:46:38.927Z,0.99
2023-03-11T18:49:07.636Z,0.98
2023-03-11T18:51:36.792Z,0.97
2023-03-11T18:54:08.597Z,0.88
2023-03-11T18:56:37.561Z,0.89
2023-03-11T18:59:06.261Z,0.92
2023-03-11T19:01:37.415Z,0.72
2023-03-11T19:04:07.470Z,0.65
2023-03-11T19:06:36.394Z,0.52
2023-03-11T19:09:07.040Z,0.52
2023-03-11T19:11:35.681Z,0.47
2023-03-11T19:14:05.543Z,0.44
2023-03-11T19:16:37.764Z,0.33
2023-03-11T19:19:06.309Z,0.27
2023-03-11T19:21:34.811Z,0.21
2023-03-11T19:24:03.313Z,0.15
2023-03-11T19:26:44.202Z,0.08
2023-03-11T19:29:13.805Z,0.09
2023-03-11T19:31:45.929Z,0.27
2023-03-11T19:34:15.504Z,0.20
2023-03-11T19:36:44.256Z,0.22
2023-03-11T19:39:13.667Z,0.14
2023-03-11T19:41:42.134Z,0.04
2023-03-11T19:44:11.115Z,-0.03
2023-03-11T19:46:40.096Z,-0.08
2023-03-11T19:49:10.029Z,-0.02
2023-03-11T19:51:49.534Z,-0.12
2023-03-11T19:54:18.831Z,0.04
2023-03-11T19:56:48.752Z,0.02
2023-03-11T19:59:17.909Z,-0.10
2023-03-11T20:01:46.843Z,-0.14
2023-03-11T20:04:17.023Z,-0.20
2023-03-11T20:06:46.684Z,-0.22
2023-03-11T20:09:16.300Z,-0.29
2023-03-11T20:11:45.791Z,-0.28
2023-03-11T20:14:14.926Z,-0.29
2023-03-11T20:16:43.938Z,-0.20
2023-03-11T20:19:12.879Z,-0.15
2023-03-11T20:21:45.692Z,-0.16
2023-03-11T20:24:14.650Z,-0.26
2023-03-11T20:26:43.235Z,-0.35
2023-03-11T20:29:11.511Z,-0.40
2023-03-11T20:31:40.356Z,-0.47
2023-03-11T20:34:09.806Z,-0.48
2023-03-11T20:36:38.615Z,-0.48
2023-03-11T20:39:10.611Z,-0.53
2023-03-11T20:41:41.639Z,-0.56
2023-03-11T20:44:13.139Z,-0.61
2023-03-11T20:46:42.398Z,-0.59
2023-03-11T20:49:12.203Z,-0.57
2023-03-11T20:51:41.934Z,-0.55
2023-03-11T20:54:13.232Z,-0.58
2023-03-11T20:56:41.960Z,-0.74
2023-03-11T20:59:13.816Z,-0.83
2023-03-11T21:01:42.480Z,-0.92
2023-03-11T21:04:11.957Z,-0.91
2023-03-11T21:06:41.721Z,-1.07
2023-03-11T21:09:15.384Z,-1.03
2023-03-11T21:11:44.378Z,-1.02
2023-03-11T21:14:15.806Z,-1.03
2023-03-11T21:16:45.482Z,-1.20
2023-03-11T21:19:15.995Z,-1.25
2023-03-11T21:21:45.551Z,-1.17
2023-03-11T21:24:17.396Z,-1.24
2023-03-11T21:26:47.296Z,-1.23
2023-03-11T21:29:15.873Z,-1.29
2023-03-11T21:31:44.698Z,-1.30
2023-03-11T21:34:13.448Z,-1.40
2023-03-11T21:36:42.306Z,-1.36
2023-03-11T21:39:11.619Z,-1.34
2023-03-11T21:41:42.405Z,-1.33
2023-03-11T21:44:11.116Z,-1.34
2023-03-11T21:46:40.028Z,-1.40
2023-03-11T21:49:08.827Z,-1.51
2023-03-11T21:51:37.633Z,-1.49
2023-03-11T21:54:06.629Z,-1.62
2023-03-11T21:56:35.576Z,-1.69
2023-03-11T21:59:05.893Z,-1.72
2023-03-11T22:01:35.741Z,-1.74
2023-03-11T22:04:04.430Z,-1.78
2023-03-11T22:06:33.935Z,-1.77
2023-03-11T22:09:04.277Z,-1.72
2023-03-11T22:11:33.790Z,-1.83
2023-03-11T22:14:02.493Z,-1.85
2023-03-11T22:16:32.700Z,-2.05
2023-03-11T22:19:01.558Z,-2.09
2023-03-11T22:21:32.929Z,-2.17
2023-03-11T22:24:01.807Z,-2.23
2023-03-11T22:26:30.647Z,-2.27
2023-03-11T22:28:59.399Z,-2.21
2023-03-11T22:31:28.347Z,-2.08
2023-03-11T22:33:58.951Z,-2.16
2023-03-11T22:36:28.361Z,-2.21
2023-03-11T22:38:59.332Z,-2.19
2023-03-11T22:41:28.654Z,-2.28
2023-03-11T22:43:57.308Z,-2.17
2023-03-11T22:46:27.290Z,-2.10
2023-03-11T22:48:57.581Z,-2.14
2023-03-11T22:51:29.067Z,-2.27
2023-03-11T22:53:58.253Z,-2.42
2023-03-11T22:56:28.248Z,-2.50
2023-03-11T22:58:57.816Z,-2.65
2023-03-11T23:01:27.673Z,-2.71
2023-03-11T23:03:56.832Z,-2.74
2023-03-11T23:06:29.192Z,-2.68
2023-03-11T23:08:58.045Z,-2.55
2023-03-11T23:11:26.987Z,-2.55
2023-03-11T23:13:57.359Z,-2.74
2023-03-11T23:16:28.083Z,-2.82
2023-03-11T23:18:57.871Z,-2.88
2023-03-11T23:21:30.099Z,-2.89
2023-03-11T23:24:01.193Z,-2.85
2023-03-11T23:26:31.529Z,-2.94
2023-03-11T23:29:01.463Z,-2.95
2023-03-11T23:31:32.066Z,-2.99
2023-03-11T23:34:01.434Z,-3.01
2023-03-11T23:36:33.378Z,-3.06
2023-03-11T23:39:03.005Z,-2.96
2023-03-11T23:41:32.920Z,-2.99
2023-03-11T23:44:02.372Z,-3.07
2023-03-11T23:46:32.080Z,-3.09
2023-03-11T23:49:03.036Z,-3.14
2023-03-11T23:51:33.547Z,-3.06
2023-03-11T23:54:05.334Z,-3.11
2023-03-11T23:56:36.063Z,-3.17
2023-03-11T23:59:08.345Z,-3.03
